Terminal Aerodrome Forecast
Issued by NWS Wilmington, NC

Home | Current Version | Previous Version | Text Only | Print | Product List | Glossary On
Versions: 1 2 3 4 5 6 7 8 9 10 11 12 13 14 15 16 17 18 19 20
000
FTUS42 KILM 312320
TAFMYR
TAF
KMYR 312320Z 0100/0124 03003KT P6SM VCSH SCT040 BKN100
     FM010800 35003KT P6SM BKN003
     FM011330 34009KT P6SM SCT020 BKN100
     FM011600 06007KT P6SM VCSH SCT030 BKN050
      AMD LTD TO CLD VIS AND WIND 0104/0111=

USA.gov is the U.S. government's official web portal to all federal, state and local government web resources and services.